sensor_id;sensor_type;location;lat;lon;timestamp;P1;durP1;ratioP1;P2;durP2;ratioP2
76127;SDS011;64873;50.102;14.434;2023-06-22T00:01:56;9.57;;;5.45;;
76127;SDS011;64873;50.102;14.434;2023-06-22T00:04:21;11.93;;;5.88;;
76127;SDS011;64873;50.102;14.434;2023-06-22T00:06:47;11.48;;;5.85;;
76127;SDS011;64873;50.102;14.434;2023-06-22T00:09:12;13.32;;;5.55;;
76127;SDS011;64873;50.102;14.434;2023-06-22T00:11:37;10.32;;;5.38;;
76127;SDS011;64873;50.102;14.434;2023-06-22T00:14:03;10.85;;;5.20;;
76127;SDS011;64873;50.102;14.434;2023-06-22T00:16:30;8.50;;;5.00;;
76127;SDS011;64873;50.102;14.434;2023-06-22T00:18:56;7.53;;;4.95;;
76127;SDS011;64873;50.102;14.434;2023-06-22T00:21:25;11.32;;;5.47;;
76127;SDS011;64873;50.102;14.434;2023-06-22T00:23:51;6.93;;;5.10;;
76127;SDS011;64873;50.102;14.434;2023-06-22T00:26:17;12.05;;;5.57;;
76127;SDS011;64873;50.102;14.434;2023-06-22T00:28:42;11.10;;;5.63;;
76127;SDS011;64873;50.102;14.434;2023-06-22T00:31:07;8.48;;;4.90;;
76127;SDS011;64873;50.102;14.434;2023-06-22T00:33:33;9.23;;;5.57;;
76127;SDS011;64873;50.102;14.434;2023-06-22T00:35:58;10.35;;;5.18;;
76127;SDS011;64873;50.102;14.434;2023-06-22T00:38:24;12.45;;;5.80;;
76127;SDS011;64873;50.102;14.434;2023-06-22T00:40:49;9.82;;;5.50;;
76127;SDS011;64873;50.102;14.434;2023-06-22T00:43:15;12.23;;;5.65;;
76127;SDS011;64873;50.102;14.434;2023-06-22T00:45:40;9.07;;;5.38;;
76127;SDS011;64873;50.102;14.434;2023-06-22T00:48:06;11.68;;;5.28;;
76127;SDS011;64873;50.102;14.434;2023-06-22T00:50:32;9.57;;;5.15;;
76127;SDS011;64873;50.102;14.434;2023-06-22T00:52:59;9.50;;;5.20;;
76127;SDS011;64873;50.102;14.434;2023-06-22T00:55:33;8.70;;;5.07;;
76127;SDS011;64873;50.102;14.434;2023-06-22T00:58:17;8.45;;;5.65;;
76127;SDS011;64873;50.102;14.434;2023-06-22T01:00:46;11.32;;;5.88;;
76127;SDS011;64873;50.102;14.434;2023-06-22T01:03:13;9.50;;;5.72;;
76127;SDS011;64873;50.102;14.434;2023-06-22T01:05:39;8.38;;;5.53;;
76127;SDS011;64873;50.102;14.434;2023-06-22T01:16:07;10.38;;;5.75;;
76127;SDS011;64873;50.102;14.434;2023-06-22T01:18:35;15.80;;;6.40;;
76127;SDS011;64873;50.102;14.434;2023-06-22T01:21:04;12.75;;;5.95;;
76127;SDS011;64873;50.102;14.434;2023-06-22T01:28:55;14.15;;;6.88;;
76127;SDS011;64873;50.102;14.434;2023-06-22T01:31:24;9.32;;;6.20;;
76127;SDS011;64873;50.102;14.434;2023-06-22T01:33:53;11.77;;;5.97;;
76127;SDS011;64873;50.102;14.434;2023-06-22T01:36:21;10.63;;;5.72;;
76127;SDS011;64873;50.102;14.434;2023-06-22T01:38:48;8.93;;;5.40;;
76127;SDS011;64873;50.102;14.434;2023-06-22T01:41:15;11.27;;;6.07;;
76127;SDS011;64873;50.102;14.434;2023-06-22T01:43:42;11.95;;;6.30;;
76127;SDS011;64873;50.102;14.434;2023-06-22T01:46:09;9.32;;;6.38;;
76127;SDS011;64873;50.102;14.434;2023-06-22T01:48:35;7.82;;;5.85;;
76127;SDS011;64873;50.102;14.434;2023-06-22T01:51:01;9.68;;;5.70;;
76127;SDS011;64873;50.102;14.434;2023-06-22T01:53:27;13.18;;;6.18;;
76127;SDS011;64873;50.102;14.434;2023-06-22T01:55:52;10.02;;;5.60;;
76127;SDS011;64873;50.102;14.434;2023-06-22T01:58:25;8.73;;;5.70;;
76127;SDS011;64873;50.102;14.434;2023-06-22T02:00:58;15.50;;;5.85;;
76127;SDS011;64873;50.102;14.434;2023-06-22T02:03:33;12.00;;;6.50;;
76127;SDS011;64873;50.102;14.434;2023-06-22T02:06:05;10.13;;;5.90;;
76127;SDS011;64873;50.102;14.434;2023-06-22T02:08:39;9.93;;;6.10;;
76127;SDS011;64873;50.102;14.434;2023-06-22T02:11:07;11.20;;;5.72;;
76127;SDS011;64873;50.102;14.434;2023-06-22T02:13:35;12.23;;;6.50;;
76127;SDS011;64873;50.102;14.434;2023-06-22T02:16:01;10.32;;;6.43;;
76127;SDS011;64873;50.102;14.434;2023-06-22T02:18:27;8.75;;;6.15;;
76127;SDS011;64873;50.102;14.434;2023-06-22T02:20:53;10.07;;;6.05;;
76127;SDS011;64873;50.102;14.434;2023-06-22T02:23:18;13.45;;;6.90;;
76127;SDS011;64873;50.102;14.434;2023-06-22T02:25:44;11.55;;;6.18;;
76127;SDS011;64873;50.102;14.434;2023-06-22T02:28:09;10.35;;;5.60;;
76127;SDS011;64873;50.102;14.434;2023-06-22T02:30:35;9.65;;;5.70;;
76127;SDS011;64873;50.102;14.434;2023-06-22T02:33:00;11.57;;;5.85;;
76127;SDS011;64873;50.102;14.434;2023-06-22T02:35:28;14.20;;;6.03;;
76127;SDS011;64873;50.102;14.434;2023-06-22T02:38:00;9.02;;;5.35;;
76127;SDS011;64873;50.102;14.434;2023-06-22T02:40:27;13.82;;;6.65;;
76127;SDS011;64873;50.102;14.434;2023-06-22T02:42:54;8.45;;;5.43;;
76127;SDS011;64873;50.102;14.434;2023-06-22T02:45:20;13.30;;;5.38;;
76127;SDS011;64873;50.102;14.434;2023-06-22T02:47:45;13.30;;;6.25;;
76127;SDS011;64873;50.102;14.434;2023-06-22T02:50:12;10.52;;;5.82;;
76127;SDS011;64873;50.102;14.434;2023-06-22T02:52:39;11.98;;;6.10;;
76127;SDS011;64873;50.102;14.434;2023-06-22T02:55:04;13.02;;;6.55;;
76127;SDS011;64873;50.102;14.434;2023-06-22T02:57:32;10.95;;;6.70;;
76127;SDS011;64873;50.102;14.434;2023-06-22T02:59:57;15.07;;;6.82;;
76127;SDS011;64873;50.102;14.434;2023-06-22T03:02:23;10.40;;;6.45;;
76127;SDS011;64873;50.102;14.434;2023-06-22T03:04:48;12.90;;;6.68;;
76127;SDS011;64873;50.102;14.434;2023-06-22T03:07:14;10.10;;;6.78;;
76127;SDS011;64873;50.102;14.434;2023-06-22T03:09:40;12.55;;;6.43;;
76127;SDS011;64873;50.102;14.434;2023-06-22T03:12:07;14.68;;;6.97;;
76127;SDS011;64873;50.102;14.434;2023-06-22T03:14:33;11.55;;;6.28;;
76127;SDS011;64873;50.102;14.434;2023-06-22T03:16:58;10.90;;;6.95;;
76127;SDS011;64873;50.102;14.434;2023-06-22T03:19:28;11.82;;;7.20;;
76127;SDS011;64873;50.102;14.434;2023-06-22T03:21:54;13.40;;;6.75;;
76127;SDS011;64873;50.102;14.434;2023-06-22T03:24:20;10.35;;;6.10;;
76127;SDS011;64873;50.102;14.434;2023-06-22T03:26:46;8.55;;;6.18;;
76127;SDS011;64873;50.102;14.434;2023-06-22T03:29:12;12.73;;;6.30;;
76127;SDS011;64873;50.102;14.434;2023-06-22T03:31:37;8.73;;;6.05;;
76127;SDS011;64873;50.102;14.434;2023-06-22T03:34:03;8.02;;;6.03;;
76127;SDS011;64873;50.102;14.434;2023-06-22T03:36:28;10.13;;;5.75;;
76127;SDS011;64873;50.102;14.434;2023-06-22T03:38:53;14.75;;;6.70;;
76127;SDS011;64873;50.102;14.434;2023-06-22T03:41:19;13.38;;;6.05;;
76127;SDS011;64873;50.102;14.434;2023-06-22T03:43:45;8.63;;;6.28;;
76127;SDS011;64873;50.102;14.434;2023-06-22T03:46:10;10.00;;;5.80;;
76127;SDS011;64873;50.102;14.434;2023-06-22T03:48:35;10.65;;;6.40;;
76127;SDS011;64873;50.102;14.434;2023-06-22T03:51:01;9.63;;;5.95;;
76127;SDS011;64873;50.102;14.434;2023-06-22T03:53:28;11.20;;;5.93;;
76127;SDS011;64873;50.102;14.434;2023-06-22T03:55:53;15.13;;;6.25;;
76127;SDS011;64873;50.102;14.434;2023-06-22T03:58:19;12.63;;;6.50;;
76127;SDS011;64873;50.102;14.434;2023-06-22T04:00:46;11.05;;;6.03;;
76127;SDS011;64873;50.102;14.434;2023-06-22T04:03:13;10.25;;;6.15;;
76127;SDS011;64873;50.102;14.434;2023-06-22T04:05:39;12.13;;;6.32;;
76127;SDS011;64873;50.102;14.434;2023-06-22T04:08:05;10.88;;;6.10;;
76127;SDS011;64873;50.102;14.434;2023-06-22T04:10:30;9.20;;;6.05;;
76127;SDS011;64873;50.102;14.434;2023-06-22T04:12:56;10.50;;;5.93;;
76127;SDS011;64873;50.102;14.434;2023-06-22T04:15:21;13.52;;;6.10;;
76127;SDS011;64873;50.102;14.434;2023-06-22T04:17:47;11.82;;;6.10;;
76127;SDS011;64873;50.102;14.434;2023-06-22T04:20:12;11.35;;;6.00;;
76127;SDS011;64873;50.102;14.434;2023-06-22T04:22:38;10.95;;;6.50;;
76127;SDS011;64873;50.102;14.434;2023-06-22T04:25:03;18.35;;;8.07;;
76127;SDS011;64873;50.102;14.434;2023-06-22T04:27:32;11.68;;;6.82;;
76127;SDS011;64873;50.102;14.434;2023-06-22T04:30:02;12.52;;;6.10;;
76127;SDS011;64873;50.102;14.434;2023-06-22T04:32:31;8.90;;;6.20;;
76127;SDS011;64873;50.102;14.434;2023-06-22T04:34:57;12.38;;;7.35;;
76127;SDS011;64873;50.102;14.434;2023-06-22T04:37:23;11.80;;;7.43;;
76127;SDS011;64873;50.102;14.434;2023-06-22T04:39:49;13.68;;;7.80;;
76127;SDS011;64873;50.102;14.434;2023-06-22T04:42:15;14.43;;;6.72;;
76127;SDS011;64873;50.102;14.434;2023-06-22T04:44:40;13.50;;;7.47;;
76127;SDS011;64873;50.102;14.434;2023-06-22T04:47:07;9.70;;;7.25;;
76127;SDS011;64873;50.102;14.434;2023-06-22T04:49:34;11.05;;;7.15;;
76127;SDS011;64873;50.102;14.434;2023-06-22T04:54:31;12.50;;;7.68;;
76127;SDS011;64873;50.102;14.434;2023-06-22T04:57:00;10.27;;;7.13;;
76127;SDS011;64873;50.102;14.434;2023-06-22T04:59:31;14.57;;;7.38;;
76127;SDS011;64873;50.102;14.434;2023-06-22T05:01:57;10.15;;;6.47;;
76127;SDS011;64873;50.102;14.434;2023-06-22T05:04:23;14.95;;;6.97;;
76127;SDS011;64873;50.102;14.434;2023-06-22T05:06:50;12.90;;;6.88;;
76127;SDS011;64873;50.102;14.434;2023-06-22T05:09:16;14.70;;;7.05;;
76127;SDS011;64873;50.102;14.434;2023-06-22T05:11:42;12.93;;;6.40;;
76127;SDS011;64873;50.102;14.434;2023-06-22T05:14:08;12.38;;;6.38;;
76127;SDS011;64873;50.102;14.434;2023-06-22T05:16:34;12.27;;;6.90;;
76127;SDS011;64873;50.102;14.434;2023-06-22T05:18:59;10.50;;;6.53;;
76127;SDS011;64873;50.102;14.434;2023-06-22T05:21:26;11.55;;;6.97;;
76127;SDS011;64873;50.102;14.434;2023-06-22T05:23:52;11.77;;;6.75;;
76127;SDS011;64873;50.102;14.434;2023-06-22T05:26:19;12.77;;;6.65;;
76127;SDS011;64873;50.102;14.434;2023-06-22T05:28:45;11.88;;;7.30;;
76127;SDS011;64873;50.102;14.434;2023-06-22T05:31:14;11.18;;;7.38;;
76127;SDS011;64873;50.102;14.434;2023-06-22T05:33:41;14.95;;;7.03;;
76127;SDS011;64873;50.102;14.434;2023-06-22T05:36:07;10.43;;;6.93;;
76127;SDS011;64873;50.102;14.434;2023-06-22T05:38:33;12.95;;;7.63;;
76127;SDS011;64873;50.102;14.434;2023-06-22T05:40:58;14.60;;;7.47;;
76127;SDS011;64873;50.102;14.434;2023-06-22T05:43:24;10.30;;;7.60;;
76127;SDS011;64873;50.102;14.434;2023-06-22T05:45:49;12.40;;;7.78;;
76127;SDS011;64873;50.102;14.434;2023-06-22T05:48:15;16.20;;;7.93;;
76127;SDS011;64873;50.102;14.434;2023-06-22T05:50:40;13.38;;;8.57;;
76127;SDS011;64873;50.102;14.434;2023-06-22T05:53:06;13.40;;;8.30;;
76127;SDS011;64873;50.102;14.434;2023-06-22T05:55:32;15.93;;;9.25;;
76127;SDS011;64873;50.102;14.434;2023-06-22T05:57:57;14.32;;;8.75;;
76127;SDS011;64873;50.102;14.434;2023-06-22T06:00:23;17.75;;;9.48;;
76127;SDS011;64873;50.102;14.434;2023-06-22T06:02:49;16.20;;;8.88;;
76127;SDS011;64873;50.102;14.434;2023-06-22T06:05:15;16.25;;;9.45;;
76127;SDS011;64873;50.102;14.434;2023-06-22T06:07:41;14.07;;;9.98;;
76127;SDS011;64873;50.102;14.434;2023-06-22T06:10:07;16.23;;;9.73;;
76127;SDS011;64873;50.102;14.434;2023-06-22T06:12:33;18.77;;;9.43;;
76127;SDS011;64873;50.102;14.434;2023-06-22T06:14:59;17.38;;;10.57;;
76127;SDS011;64873;50.102;14.434;2023-06-22T06:17:24;19.00;;;10.00;;
76127;SDS011;64873;50.102;14.434;2023-06-22T06:19:49;14.27;;;9.43;;
76127;SDS011;64873;50.102;14.434;2023-06-22T06:22:15;16.35;;;10.23;;
76127;SDS011;64873;50.102;14.434;2023-06-22T06:24:40;21.95;;;10.52;;
76127;SDS011;64873;50.102;14.434;2023-06-22T06:27:06;14.20;;;10.15;;
76127;SDS011;64873;50.102;14.434;2023-06-22T06:29:31;18.92;;;9.55;;
76127;SDS011;64873;50.102;14.434;2023-06-22T06:31:57;16.02;;;10.88;;
76127;SDS011;64873;50.102;14.434;2023-06-22T06:34:22;15.45;;;10.10;;
76127;SDS011;64873;50.102;14.434;2023-06-22T06:36:48;16.58;;;10.23;;
76127;SDS011;64873;50.102;14.434;2023-06-22T06:39:13;19.15;;;11.07;;
76127;SDS011;64873;50.102;14.434;2023-06-22T06:41:39;28.05;;;10.25;;
76127;SDS011;64873;50.102;14.434;2023-06-22T06:44:04;17.13;;;10.10;;
76127;SDS011;64873;50.102;14.434;2023-06-22T06:46:30;16.58;;;11.02;;
76127;SDS011;64873;50.102;14.434;2023-06-22T06:48:55;17.20;;;10.02;;
76127;SDS011;64873;50.102;14.434;2023-06-22T06:51:21;18.90;;;11.05;;
76127;SDS011;64873;50.102;14.434;2023-06-22T06:53:46;19.02;;;10.85;;
76127;SDS011;64873;50.102;14.434;2023-06-22T06:56:11;15.98;;;10.93;;
76127;SDS011;64873;50.102;14.434;2023-06-22T06:58:37;18.95;;;10.98;;
76127;SDS011;64873;50.102;14.434;2023-06-22T07:01:05;18.45;;;9.77;;
76127;SDS011;64873;50.102;14.434;2023-06-22T07:03:31;15.43;;;9.57;;
76127;SDS011;64873;50.102;14.434;2023-06-22T07:05:58;12.55;;;8.48;;
76127;SDS011;64873;50.102;14.434;2023-06-22T07:08:23;14.73;;;8.93;;
76127;SDS011;64873;50.102;14.434;2023-06-22T07:10:49;19.05;;;9.20;;
76127;SDS011;64873;50.102;14.434;2023-06-22T07:13:14;16.30;;;8.75;;
76127;SDS011;64873;50.102;14.434;2023-06-22T07:15:39;17.75;;;8.82;;
76127;SDS011;64873;50.102;14.434;2023-06-22T07:18:05;14.13;;;8.23;;
76127;SDS011;64873;50.102;14.434;2023-06-22T07:20:30;11.18;;;8.38;;
76127;SDS011;64873;50.102;14.434;2023-06-22T07:22:56;11.20;;;7.78;;
76127;SDS011;64873;50.102;14.434;2023-06-22T07:25:23;14.13;;;8.70;;
76127;SDS011;64873;50.102;14.434;2023-06-22T07:27:59;15.27;;;8.45;;
76127;SDS011;64873;50.102;14.434;2023-06-22T07:30:27;15.20;;;8.15;;
76127;SDS011;64873;50.102;14.434;2023-06-22T07:32:52;13.50;;;8.43;;
76127;SDS011;64873;50.102;14.434;2023-06-22T07:35:18;17.83;;;8.70;;
76127;SDS011;64873;50.102;14.434;2023-06-22T07:37:44;16.08;;;9.13;;
76127;SDS011;64873;50.102;14.434;2023-06-22T07:40:09;15.27;;;8.02;;
76127;SDS011;64873;50.102;14.434;2023-06-22T07:42:35;15.48;;;9.35;;
76127;SDS011;64873;50.102;14.434;2023-06-22T07:45:03;14.02;;;8.27;;
76127;SDS011;64873;50.102;14.434;2023-06-22T07:47:29;14.07;;;9.00;;
76127;SDS011;64873;50.102;14.434;2023-06-22T07:49:55;19.27;;;8.80;;
76127;SDS011;64873;50.102;14.434;2023-06-22T07:52:26;10.88;;;7.68;;
76127;SDS011;64873;50.102;14.434;2023-06-22T07:54:51;21.15;;;8.85;;
76127;SDS011;64873;50.102;14.434;2023-06-22T07:57:17;12.88;;;8.00;;
76127;SDS011;64873;50.102;14.434;2023-06-22T07:59:43;11.93;;;7.20;;
76127;SDS011;64873;50.102;14.434;2023-06-22T08:02:09;12.05;;;7.97;;
76127;SDS011;64873;50.102;14.434;2023-06-22T08:04:35;15.02;;;8.07;;
76127;SDS011;64873;50.102;14.434;2023-06-22T08:07:00;12.50;;;7.65;;
76127;SDS011;64873;50.102;14.434;2023-06-22T08:09:32;12.05;;;7.72;;
76127;SDS011;64873;50.102;14.434;2023-06-22T08:11:58;12.23;;;7.30;;
76127;SDS011;64873;50.102;14.434;2023-06-22T08:14:27;12.32;;;8.30;;
76127;SDS011;64873;50.102;14.434;2023-06-22T08:16:52;11.27;;;8.13;;
76127;SDS011;64873;50.102;14.434;2023-06-22T08:19:18;12.18;;;7.28;;
76127;SDS011;64873;50.102;14.434;2023-06-22T08:21:43;13.07;;;8.25;;
76127;SDS011;64873;50.102;14.434;2023-06-22T08:24:09;11.98;;;8.18;;
76127;SDS011;64873;50.102;14.434;2023-06-22T08:26:35;11.88;;;7.88;;
76127;SDS011;64873;50.102;14.434;2023-06-22T08:29:02;13.52;;;8.35;;
76127;SDS011;64873;50.102;14.434;2023-06-22T08:31:28;17.05;;;7.78;;
76127;SDS011;64873;50.102;14.434;2023-06-22T08:33:54;13.50;;;7.38;;
76127;SDS011;64873;50.102;14.434;2023-06-22T08:36:19;13.35;;;7.25;;
76127;SDS011;64873;50.102;14.434;2023-06-22T08:38:45;12.07;;;7.97;;
76127;SDS011;64873;50.102;14.434;2023-06-22T08:41:16;10.77;;;7.00;;
76127;SDS011;64873;50.102;14.434;2023-06-22T08:43:42;11.43;;;6.93;;
76127;SDS011;64873;50.102;14.434;2023-06-22T08:46:09;10.45;;;6.80;;
76127;SDS011;64873;50.102;14.434;2023-06-22T08:48:35;11.07;;;7.18;;
76127;SDS011;64873;50.102;14.434;2023-06-22T08:51:00;18.77;;;7.70;;
76127;SDS011;64873;50.102;14.434;2023-06-22T08:53:25;10.13;;;7.07;;
76127;SDS011;64873;50.102;14.434;2023-06-22T08:55:51;9.45;;;7.47;;
76127;SDS011;64873;50.102;14.434;2023-06-22T08:58:16;14.15;;;7.75;;
76127;SDS011;64873;50.102;14.434;2023-06-22T09:00:43;12.35;;;7.68;;
76127;SDS011;64873;50.102;14.434;2023-06-22T09:03:08;11.32;;;7.10;;
76127;SDS011;64873;50.102;14.434;2023-06-22T09:05:34;12.98;;;7.47;;
76127;SDS011;64873;50.102;14.434;2023-06-22T09:07:59;9.60;;;6.43;;
76127;SDS011;64873;50.102;14.434;2023-06-22T09:10:25;15.73;;;7.38;;
76127;SDS011;64873;50.102;14.434;2023-06-22T09:12:50;7.85;;;6.68;;
76127;SDS011;64873;50.102;14.434;2023-06-22T09:15:16;11.77;;;7.45;;
76127;SDS011;64873;50.102;14.434;2023-06-22T09:17:41;10.68;;;7.10;;
76127;SDS011;64873;50.102;14.434;2023-06-22T09:20:07;12.68;;;7.53;;
76127;SDS011;64873;50.102;14.434;2023-06-22T09:22:35;10.25;;;6.85;;
76127;SDS011;64873;50.102;14.434;2023-06-22T09:25:01;10.95;;;6.63;;
76127;SDS011;64873;50.102;14.434;2023-06-22T09:27:27;12.50;;;7.05;;
76127;SDS011;64873;50.102;14.434;2023-06-22T09:29:53;15.38;;;7.80;;
76127;SDS011;64873;50.102;14.434;2023-06-22T09:32:18;11.50;;;6.47;;
76127;SDS011;64873;50.102;14.434;2023-06-22T09:34:43;9.10;;;6.30;;
76127;SDS011;64873;50.102;14.434;2023-06-22T09:37:09;11.45;;;6.97;;
76127;SDS011;64873;50.102;14.434;2023-06-22T09:39:34;12.43;;;7.30;;
76127;SDS011;64873;50.102;14.434;2023-06-22T09:42:01;8.73;;;7.00;;
76127;SDS011;64873;50.102;14.434;2023-06-22T09:44:27;7.88;;;5.95;;
76127;SDS011;64873;50.102;14.434;2023-06-22T09:46:52;14.48;;;7.10;;
76127;SDS011;64873;50.102;14.434;2023-06-22T09:49:18;11.10;;;7.45;;
76127;SDS011;64873;50.102;14.434;2023-06-22T09:51:43;11.90;;;6.53;;
76127;SDS011;64873;50.102;14.434;2023-06-22T09:54:08;9.30;;;6.20;;
76127;SDS011;64873;50.102;14.434;2023-06-22T09:56:34;9.90;;;6.72;;
76127;SDS011;64873;50.102;14.434;2023-06-22T09:58:59;10.15;;;7.07;;
76127;SDS011;64873;50.102;14.434;2023-06-22T10:01:25;11.90;;;7.18;;
76127;SDS011;64873;50.102;14.434;2023-06-22T10:03:52;9.43;;;6.68;;
76127;SDS011;64873;50.102;14.434;2023-06-22T10:08:47;13.45;;;7.32;;
76127;SDS011;64873;50.102;14.434;2023-06-22T10:11:13;12.48;;;6.88;;
76127;SDS011;64873;50.102;14.434;2023-06-22T10:13:39;11.82;;;7.25;;
76127;SDS011;64873;50.102;14.434;2023-06-22T10:16:04;11.15;;;7.38;;
76127;SDS011;64873;50.102;14.434;2023-06-22T10:18:30;17.33;;;7.63;;
76127;SDS011;64873;50.102;14.434;2023-06-22T10:20:55;11.77;;;7.10;;
76127;SDS011;64873;50.102;14.434;2023-06-22T10:23:21;12.98;;;8.00;;
76127;SDS011;64873;50.102;14.434;2023-06-22T10:25:46;16.00;;;7.47;;
76127;SDS011;64873;50.102;14.434;2023-06-22T10:28:12;12.48;;;7.90;;
76127;SDS011;64873;50.102;14.434;2023-06-22T10:30:38;13.93;;;7.43;;
76127;SDS011;64873;50.102;14.434;2023-06-22T10:33:06;16.30;;;10.13;;
76127;SDS011;64873;50.102;14.434;2023-06-22T10:35:32;12.35;;;7.90;;
76127;SDS011;64873;50.102;14.434;2023-06-22T10:37:57;16.67;;;7.50;;
76127;SDS011;64873;50.102;14.434;2023-06-22T10:40:23;11.98;;;7.32;;
76127;SDS011;64873;50.102;14.434;2023-06-22T10:42:48;19.88;;;8.48;;
76127;SDS011;64873;50.102;14.434;2023-06-22T10:45:15;10.27;;;7.55;;
76127;SDS011;64873;50.102;14.434;2023-06-22T10:47:40;14.43;;;7.22;;
76127;SDS011;64873;50.102;14.434;2023-06-22T10:50:07;11.27;;;7.47;;
76127;SDS011;64873;50.102;14.434;2023-06-22T10:52:33;11.75;;;8.27;;
76127;SDS011;64873;50.102;14.434;2023-06-22T10:54:58;15.27;;;9.18;;
76127;SDS011;64873;50.102;14.434;2023-06-22T10:57:24;9.02;;;7.03;;
76127;SDS011;64873;50.102;14.434;2023-06-22T10:59:49;18.17;;;11.95;;
76127;SDS011;64873;50.102;14.434;2023-06-22T11:02:14;18.13;;;7.60;;
76127;SDS011;64873;50.102;14.434;2023-06-22T11:04:40;16.35;;;7.65;;
76127;SDS011;64873;50.102;14.434;2023-06-22T11:07:05;12.20;;;7.60;;
76127;SDS011;64873;50.102;14.434;2023-06-22T11:09:31;14.43;;;8.43;;
76127;SDS011;64873;50.102;14.434;2023-06-22T11:11:56;15.68;;;7.35;;
76127;SDS011;64873;50.102;14.434;2023-06-22T11:14:23;16.13;;;7.95;;
76127;SDS011;64873;50.102;14.434;2023-06-22T11:16:49;13.95;;;7.38;;
76127;SDS011;64873;50.102;14.434;2023-06-22T11:19:14;14.88;;;7.47;;
76127;SDS011;64873;50.102;14.434;2023-06-22T11:21:40;12.15;;;7.45;;
76127;SDS011;64873;50.102;14.434;2023-06-22T11:24:05;11.57;;;7.18;;
76127;SDS011;64873;50.102;14.434;2023-06-22T11:26:31;15.38;;;7.45;;
76127;SDS011;64873;50.102;14.434;2023-06-22T11:28:57;13.60;;;7.28;;
76127;SDS011;64873;50.102;14.434;2023-06-22T11:31:22;14.18;;;7.93;;
76127;SDS011;64873;50.102;14.434;2023-06-22T11:33:48;14.20;;;7.28;;
76127;SDS011;64873;50.102;14.434;2023-06-22T11:36:13;17.30;;;7.53;;
76127;SDS011;64873;50.102;14.434;2023-06-22T11:38:40;14.15;;;7.90;;
76127;SDS011;64873;50.102;14.434;2023-06-22T11:41:07;16.88;;;7.72;;
76127;SDS011;64873;50.102;14.434;2023-06-22T11:43:32;12.68;;;8.75;;
76127;SDS011;64873;50.102;14.434;2023-06-22T11:45:58;11.48;;;7.47;;
76127;SDS011;64873;50.102;14.434;2023-06-22T11:48:24;10.95;;;6.97;;
76127;SDS011;64873;50.102;14.434;2023-06-22T11:50:50;10.90;;;7.40;;
76127;SDS011;64873;50.102;14.434;2023-06-22T11:53:15;13.57;;;7.80;;
76127;SDS011;64873;50.102;14.434;2023-06-22T11:55:42;16.67;;;7.80;;
76127;SDS011;64873;50.102;14.434;2023-06-22T11:58:08;11.40;;;7.72;;
76127;SDS011;64873;50.102;14.434;2023-06-22T12:00:34;14.75;;;7.55;;
76127;SDS011;64873;50.102;14.434;2023-06-22T12:02:59;14.93;;;8.02;;
76127;SDS011;64873;50.102;14.434;2023-06-22T12:05:25;13.40;;;7.72;;
76127;SDS011;64873;50.102;14.434;2023-06-22T12:07:52;9.73;;;8.35;;
76127;SDS011;64873;50.102;14.434;2023-06-22T12:10:18;13.30;;;8.07;;
76127;SDS011;64873;50.102;14.434;2023-06-22T12:12:44;14.25;;;7.85;;
76127;SDS011;64873;50.102;14.434;2023-06-22T12:15:09;14.13;;;7.45;;
76127;SDS011;64873;50.102;14.434;2023-06-22T12:17:35;24.17;;;7.55;;
76127;SDS011;64873;50.102;14.434;2023-06-22T12:20:01;13.68;;;7.28;;
76127;SDS011;64873;50.102;14.434;2023-06-22T12:22:30;9.13;;;7.10;;
76127;SDS011;64873;50.102;14.434;2023-06-22T12:24:56;13.68;;;8.90;;
76127;SDS011;64873;50.102;14.434;2023-06-22T12:27:21;12.10;;;7.20;;
76127;SDS011;64873;50.102;14.434;2023-06-22T12:29:47;12.45;;;7.72;;
76127;SDS011;64873;50.102;14.434;2023-06-22T12:32:13;11.50;;;6.93;;
76127;SDS011;64873;50.102;14.434;2023-06-22T12:34:40;12.95;;;7.85;;
76127;SDS011;64873;50.102;14.434;2023-06-22T12:37:07;12.50;;;7.65;;
76127;SDS011;64873;50.102;14.434;2023-06-22T12:39:32;17.50;;;7.60;;
76127;SDS011;64873;50.102;14.434;2023-06-22T12:41:57;13.65;;;7.63;;
76127;SDS011;64873;50.102;14.434;2023-06-22T12:44:23;12.45;;;7.20;;
76127;SDS011;64873;50.102;14.434;2023-06-22T12:46:48;9.48;;;7.65;;
76127;SDS011;64873;50.102;14.434;2023-06-22T12:49:14;10.38;;;6.97;;
76127;SDS011;64873;50.102;14.434;2023-06-22T12:51:40;11.57;;;7.43;;
76127;SDS011;64873;50.102;14.434;2023-06-22T12:54:07;12.30;;;8.10;;
76127;SDS011;64873;50.102;14.434;2023-06-22T12:56:32;15.15;;;7.55;;
76127;SDS011;64873;50.102;14.434;2023-06-22T12:58:58;11.32;;;7.57;;
76127;SDS011;64873;50.102;14.434;2023-06-22T13:01:26;9.75;;;6.65;;
76127;SDS011;64873;50.102;14.434;2023-06-22T13:03:58;11.38;;;6.43;;
76127;SDS011;64873;50.102;14.434;2023-06-22T13:06:24;13.13;;;6.22;;
76127;SDS011;64873;50.102;14.434;2023-06-22T13:08:49;16.98;;;6.00;;
76127;SDS011;64873;50.102;14.434;2023-06-22T13:11:15;11.73;;;8.27;;
76127;SDS011;64873;50.102;14.434;2023-06-22T13:13:40;8.82;;;6.97;;
76127;SDS011;64873;50.102;14.434;2023-06-22T13:16:06;11.48;;;7.03;;
76127;SDS011;64873;50.102;14.434;2023-06-22T13:18:32;13.05;;;6.40;;
76127;SDS011;64873;50.102;14.434;2023-06-22T13:20:58;13.98;;;6.20;;
76127;SDS011;64873;50.102;14.434;2023-06-22T13:23:25;14.40;;;6.15;;
76127;SDS011;64873;50.102;14.434;2023-06-22T13:25:50;8.18;;;5.32;;
76127;SDS011;64873;50.102;14.434;2023-06-22T13:28:16;11.40;;;6.20;;
76127;SDS011;64873;50.102;14.434;2023-06-22T13:30:42;13.25;;;6.68;;
76127;SDS011;64873;50.102;14.434;2023-06-22T13:33:08;9.85;;;5.97;;
76127;SDS011;64873;50.102;14.434;2023-06-22T13:35:33;10.57;;;5.82;;
76127;SDS011;64873;50.102;14.434;2023-06-22T13:38:00;13.73;;;7.13;;
76127;SDS011;64873;50.102;14.434;2023-06-22T13:40:26;12.48;;;6.55;;
76127;SDS011;64873;50.102;14.434;2023-06-22T13:42:51;13.77;;;6.15;;
76127;SDS011;64873;50.102;14.434;2023-06-22T13:45:17;9.40;;;6.00;;
76127;SDS011;64873;50.102;14.434;2023-06-22T13:47:44;11.20;;;6.20;;
76127;SDS011;64873;50.102;14.434;2023-06-22T13:50:09;10.27;;;5.82;;
76127;SDS011;64873;50.102;14.434;2023-06-22T13:52:35;9.82;;;5.82;;
76127;SDS011;64873;50.102;14.434;2023-06-22T13:55:01;9.57;;;6.70;;
76127;SDS011;64873;50.102;14.434;2023-06-22T13:57:27;10.35;;;6.57;;
76127;SDS011;64873;50.102;14.434;2023-06-22T13:59:52;9.63;;;6.45;;
76127;SDS011;64873;50.102;14.434;2023-06-22T14:02:18;9.82;;;6.55;;
76127;SDS011;64873;50.102;14.434;2023-06-22T14:04:43;10.80;;;5.70;;
76127;SDS011;64873;50.102;14.434;2023-06-22T14:07:09;12.15;;;6.43;;
76127;SDS011;64873;50.102;14.434;2023-06-22T14:09:34;15.48;;;7.80;;
76127;SDS011;64873;50.102;14.434;2023-06-22T14:12:03;12.88;;;6.93;;
76127;SDS011;64873;50.102;14.434;2023-06-22T14:14:31;11.75;;;6.18;;
76127;SDS011;64873;50.102;14.434;2023-06-22T14:16:57;10.38;;;6.22;;
76127;SDS011;64873;50.102;14.434;2023-06-22T14:19:22;12.40;;;7.30;;
76127;SDS011;64873;50.102;14.434;2023-06-22T14:21:47;13.43;;;6.85;;
76127;SDS011;64873;50.102;14.434;2023-06-22T14:24:13;14.18;;;6.18;;
76127;SDS011;64873;50.102;14.434;2023-06-22T14:26:38;11.85;;;6.03;;
76127;SDS011;64873;50.102;14.434;2023-06-22T14:29:04;11.55;;;6.53;;
76127;SDS011;64873;50.102;14.434;2023-06-22T14:31:29;11.82;;;6.28;;
76127;SDS011;64873;50.102;14.434;2023-06-22T14:33:54;11.63;;;6.15;;
76127;SDS011;64873;50.102;14.434;2023-06-22T14:36:20;12.23;;;6.28;;